Time;durP1;ratioP1;P1;durP2;ratioP2;P2;SDS_P1;SDS_P2;PMS_P1;PMS_P2;Temp;Humidity;BMP_temperature;BMP_pressure;BME280_temperature;BME280_humidity;BME280_pressure;Samples;Min_cycle;Max_cycle;Signal;HPM_P1;HPM_P2
2022/12/23 00:00:57;;;;;;;23.87;13.90;;;4.80;99.90;;;;;;5053979;28;20741;-80
2022/12/23 00:03:24;;;;;;;24.10;14.00;;;4.70;99.90;;;;;;5061339;28;20228;-80
2022/12/23 00:05:51;;;;;;;24.33;14.27;;;4.70;99.90;;;;;;5062870;28;20713;-80
2022/12/23 00:08:18;;;;;;;28.60;15.10;;;4.80;99.90;;;;;;5068567;28;20246;-80
2022/12/23 00:10:45;;;;;;;28.57;16.47;;;4.70;99.90;;;;;;5058582;28;20275;-79
2022/12/23 00:16:02;;;;;;;27.67;15.47;;;4.70;99.90;;;;;;5066324;28;20325;-79
2022/12/23 00:18:29;;;;;;;28.83;16.17;;;4.80;99.90;;;;;;5060477;28;20230;-79
2022/12/23 00:20:58;;;;;;;26.53;14.33;;;4.80;99.90;;;;;;5062347;28;20230;-79
2022/12/23 00:23:25;;;;;;;26.30;15.93;;;4.80;99.90;;;;;;5054631;28;20298;-79
2022/12/23 00:25:51;;;;;;;32.97;15.70;;;4.80;99.90;;;;;;5062479;28;20604;-79
2022/12/23 00:28:21;;;;;;;27.40;16.00;;;4.80;99.90;;;;;;5058810;28;20319;-79
2022/12/23 00:30:50;;;;;;;30.83;15.43;;;4.80;99.90;;;;;;5056708;28;20252;-79
2022/12/23 00:33:19;;;;;;;26.50;15.80;;;4.80;99.90;;;;;;5055383;28;20451;-79
2022/12/23 00:35:46;;;;;;;32.23;17.13;;;4.80;99.90;;;;;;5060886;28;20308;-79
2022/12/23 00:38:14;;;;;;;28.77;15.13;;;4.80;99.90;;;;;;5061836;28;20248;-79
2022/12/23 00:43:27;;;;;;;30.00;15.10;;;4.90;99.90;;;;;;5055685;28;20293;-78
2022/12/23 00:45:54;;;;;;;26.27;15.80;;;4.90;99.90;;;;;;5058267;28;20209;-78
2022/12/23 00:51:06;;;;;;;32.60;17.40;;;4.80;99.90;;;;;;5054102;28;20225;-79
2022/12/23 00:53:32;;;;;;;27.57;16.30;;;4.80;99.90;;;;;;5059648;28;20230;-79
2022/12/23 00:55:59;;;;;;;29.90;17.97;;;4.90;99.90;;;;;;5049120;28;20279;-80
2022/12/23 00:58:27;;;;;;;31.57;17.13;;;4.90;99.90;;;;;;5062332;28;20233;-79
2022/12/23 01:06:23;;;;;;;29.00;16.47;;;4.90;99.90;;;;;;5067404;28;20224;-79
2022/12/23 01:08:50;;;;;;;27.37;16.40;;;4.90;99.90;;;;;;5055237;28;20229;-79
2022/12/23 01:11:17;;;;;;;27.07;16.77;;;5.00;99.90;;;;;;5058197;28;20226;-79
2022/12/23 01:13:46;;;;;;;30.93;17.10;;;4.90;99.90;;;;;;5056475;28;20222;-79
2022/12/23 01:16:13;;;;;;;27.27;16.93;;;5.00;99.90;;;;;;5056579;28;20228;-78
2022/12/23 01:18:40;;;;;;;29.93;16.37;;;5.00;99.90;;;;;;5052520;28;20251;-79
2022/12/23 01:21:09;;;;;;;27.60;16.27;;;5.00;99.90;;;;;;5055900;28;20227;-79
2022/12/23 01:23:37;;;;;;;31.47;17.17;;;5.00;99.90;;;;;;5053755;28;20216;-78
2022/12/23 01:26:06;;;;;;;25.70;15.97;;;5.00;99.90;;;;;;5054465;28;20308;-78
2022/12/23 01:28:34;;;;;;;32.30;17.60;;;5.00;99.90;;;;;;5048320;28;20218;-78
2022/12/23 01:31:05;;;;;;;34.37;19.03;;;5.00;99.90;;;;;;5049076;28;20228;-78
2022/12/23 01:33:33;;;;;;;34.00;18.63;;;5.00;99.90;;;;;;5050426;28;20306;-79
2022/12/23 01:36:00;;;;;;;30.37;17.53;;;5.00;99.90;;;;;;5053399;28;20226;-78
2022/12/23 01:38:27;;;;;;;30.53;17.90;;;5.10;99.90;;;;;;5053830;28;20220;-78
2022/12/23 01:40:54;;;;;;;31.00;17.57;;;5.10;99.90;;;;;;5058017;28;20258;-78
2022/12/23 01:43:21;;;;;;;29.13;16.43;;;5.10;99.90;;;;;;5053830;28;20222;-78
2022/12/23 01:45:48;;;;;;;28.93;17.37;;;5.10;99.90;;;;;;5044132;28;20218;-78
2022/12/23 01:48:21;;;;;;;30.33;17.23;;;5.10;99.90;;;;;;5053425;28;20803;-78
2022/12/23 01:50:53;;;;;;;29.03;17.00;;;5.10;99.90;;;;;;5051831;28;20237;-79
2022/12/23 01:53:23;;;;;;;29.53;16.63;;;5.10;99.90;;;;;;5051415;28;20223;-79
2022/12/23 01:55:55;;;;;;;32.20;18.63;;;5.10;99.90;;;;;;5052598;28;21171;-79
2022/12/23 01:58:25;;;;;;;29.03;17.00;;;5.10;99.90;;;;;;5052975;28;20308;-78
2022/12/23 02:03:41;;;;;;;31.97;16.63;;;5.20;99.90;;;;;;5051436;28;20220;-79
2022/12/23 02:12:03;;;;;;;28.87;17.90;;;5.20;99.90;;;;;;5054131;28;20842;-79
2022/12/23 02:17:35;;;;;;;30.97;17.13;;;5.20;99.90;;;;;;5056651;28;20288;-79
2022/12/23 02:20:41;;;;;;;32.23;18.73;;;5.20;99.90;;;;;;5049381;28;20220;-79
2022/12/23 02:23:53;;;;;;;30.47;18.40;;;5.20;99.90;;;;;;5063078;28;20236;-79
2022/12/23 02:26:45;;;;;;;27.07;16.97;;;5.20;99.90;;;;;;4959950;28;20239;-79
2022/12/23 02:29:37;;;;;;;27.93;17.43;;;5.20;99.90;;;;;;5046138;28;20223;-79
2022/12/23 02:32:10;;;;;;;28.17;16.60;;;5.20;99.90;;;;;;5065428;28;20234;-79
2022/12/23 02:34:49;;;;;;;32.17;18.00;;;5.20;99.90;;;;;;5051414;28;20300;-79
2022/12/23 02:37:21;;;;;;;31.30;17.43;;;5.20;99.90;;;;;;5056976;28;20271;-79
2022/12/23 02:39:54;;;;;;;29.43;18.43;;;5.20;99.90;;;;;;5058852;28;20226;-79
2022/12/23 02:42:25;;;;;;;28.67;17.73;;;5.20;99.90;;;;;;5054824;28;20276;-79
2022/12/23 02:44:59;;;;;;;29.93;17.03;;;5.10;99.90;;;;;;5060459;28;20222;-79
2022/12/23 02:47:33;;;;;;;32.83;17.83;;;5.10;99.90;;;;;;5057407;28;20302;-78
2022/12/23 02:50:05;;;;;;;31.47;17.70;;;5.10;99.90;;;;;;5052335;28;20341;-78
2022/12/23 02:52:33;;;;;;;30.83;18.20;;;5.10;99.90;;;;;;5061833;28;20221;-78
2022/12/23 02:55:05;;;;;;;36.67;19.60;;;5.10;99.90;;;;;;5059153;28;20238;-78
2022/12/23 02:57:36;;;;;;;29.83;17.73;;;5.10;99.90;;;;;;5061783;28;20230;-78
2022/12/23 03:00:05;;;;;;;34.63;19.37;;;5.10;99.90;;;;;;5059118;28;20224;-78
2022/12/23 03:02:36;;;;;;;34.93;18.40;;;5.10;99.90;;;;;;5059506;28;20222;-78
2022/12/23 03:05:02;;;;;;;36.87;19.40;;;5.10;99.90;;;;;;5056471;28;20246;-78
2022/12/23 03:07:37;;;;;;;40.27;20.60;;;5.10;99.90;;;;;;5060475;28;20246;-78
2022/12/23 03:10:13;;;;;;;37.90;20.20;;;5.10;99.90;;;;;;5059063;28;20226;-78
2022/12/23 03:12:49;;;;;;;31.97;19.60;;;5.10;99.90;;;;;;5049020;28;20251;-78
2022/12/23 03:15:30;;;;;;;38.10;20.37;;;5.10;99.90;;;;;;5057304;28;20294;-78
2022/12/23 03:18:03;;;;;;;37.10;19.53;;;5.20;99.90;;;;;;5052449;28;20238;-78
2022/12/23 03:20:39;;;;;;;44.03;21.13;;;5.20;99.90;;;;;;5059207;28;20232;-78
2022/12/23 03:23:13;;;;;;;41.70;19.87;;;5.20;99.90;;;;;;5056470;28;20811;-78
2022/12/23 03:25:47;;;;;;;33.50;19.60;;;5.20;99.90;;;;;;5056517;28;20220;-78
2022/12/23 03:28:19;;;;;;;36.10;19.10;;;5.20;99.90;;;;;;5051972;28;20233;-78
2022/12/23 03:30:50;;;;;;;42.17;20.13;;;5.20;99.90;;;;;;5053815;28;20233;-78
2022/12/23 03:33:23;;;;;;;50.37;22.03;;;5.20;99.90;;;;;;5052835;28;20310;-78
2022/12/23 03:35:54;;;;;;;41.97;21.37;;;5.20;99.90;;;;;;5057289;28;20229;-79
2022/12/23 03:38:22;;;;;;;38.53;20.40;;;5.30;99.90;;;;;;5054317;28;20229;-79
2022/12/23 03:40:54;;;;;;;39.93;20.77;;;5.30;99.90;;;;;;5050724;28;20312;-79
2022/12/23 03:43:24;;;;;;;238.07;32.87;;;5.30;99.90;;;;;;5060009;28;20321;-79
2022/12/23 03:45:58;;;;;;;55.40;22.40;;;5.30;99.90;;;;;;5054133;28;20219;-79
2022/12/23 03:48:32;;;;;;;36.27;20.07;;;5.40;99.90;;;;;;5052658;28;20230;-78
2022/12/23 03:51:02;;;;;;;40.20;21.23;;;5.40;99.90;;;;;;5063513;28;20232;-78
2022/12/23 03:53:32;;;;;;;46.90;21.73;;;5.40;99.90;;;;;;5056120;28;20232;-78
2022/12/23 03:56:02;;;;;;;37.27;21.10;;;5.40;99.90;;;;;;5057725;28;20232;-79
2022/12/23 03:58:36;;;;;;;89.77;23.60;;;5.40;99.90;;;;;;5067990;28;20308;-79
2022/12/23 04:01:10;;;;;;;47.50;22.23;;;5.50;99.90;;;;;;5060825;28;20236;-78
2022/12/23 04:03:48;;;;;;;39.43;20.67;;;5.60;99.90;;;;;;5060674;28;20230;-79
2022/12/23 04:06:17;;;;;;;74.43;23.60;;;5.50;99.90;;;;;;5055575;28;20297;-78
2022/12/23 04:08:46;;;;;;;44.50;21.87;;;5.50;99.90;;;;;;5056303;28;20221;-79
2022/12/23 04:11:13;;;;;;;40.53;21.80;;;5.50;99.90;;;;;;5058238;28;20779;-78
2022/12/23 04:13:40;;;;;;;39.40;21.13;;;5.50;99.90;;;;;;5059459;28;20674;-79
2022/12/23 04:16:07;;;;;;;37.23;21.03;;;5.50;99.90;;;;;;5051786;28;20226;-78
2022/12/23 04:18:34;;;;;;;37.47;20.67;;;5.60;99.90;;;;;;5059264;28;20936;-78
2022/12/23 04:21:02;;;;;;;35.20;19.23;;;5.60;99.90;;;;;;5063863;28;20253;-78
2022/12/23 04:23:28;;;;;;;143.07;26.73;;;5.60;99.90;;;;;;5053997;28;20223;-78
2022/12/23 04:25:55;;;;;;;39.80;21.27;;;5.60;99.90;;;;;;5053797;28;20312;-78
2022/12/23 04:28:22;;;;;;;36.57;20.17;;;5.60;99.90;;;;;;5058619;28;20240;-78
2022/12/23 04:30:49;;;;;;;42.20;19.97;;;5.60;99.90;;;;;;5055596;28;20815;-78
2022/12/23 04:33:16;;;;;;;34.10;19.07;;;5.60;99.90;;;;;;5062174;28;20226;-78
2022/12/23 04:35:43;;;;;;;34.00;18.40;;;5.60;99.90;;;;;;5065906;28;20698;-78
2022/12/23 04:38:11;;;;;;;32.67;19.03;;;5.50;99.90;;;;;;5054824;28;20324;-80
2022/12/23 04:40:38;;;;;;;35.90;19.53;;;5.50;99.90;;;;;;5058816;28;20226;-79
2022/12/23 04:43:05;;;;;;;35.80;18.40;;;5.50;99.90;;;;;;5051873;28;20718;-79
2022/12/23 04:45:32;;;;;;;38.27;20.23;;;5.60;99.90;;;;;;5049576;28;20279;-79
2022/12/23 04:47:59;;;;;;;38.20;21.00;;;5.50;99.90;;;;;;5049229;28;20405;-78
2022/12/23 04:50:26;;;;;;;37.97;19.97;;;5.40;99.90;;;;;;5054823;28;20236;-79
2022/12/23 04:52:52;;;;;;;44.50;20.17;;;5.40;99.90;;;;;;5061655;28;20231;-80
2022/12/23 04:55:20;;;;;;;47.13;19.97;;;5.40;99.90;;;;;;5056909;28;20217;-79
2022/12/23 04:57:47;;;;;;;42.73;19.80;;;5.40;99.90;;;;;;5053075;28;20831;-78
2022/12/23 05:00:15;;;;;;;45.27;20.20;;;5.30;99.90;;;;;;5059452;28;20921;-78
2022/12/23 05:02:41;;;;;;;38.70;20.40;;;5.30;99.90;;;;;;5047639;28;20229;-77
2022/12/23 05:05:08;;;;;;;42.97;20.90;;;5.30;99.90;;;;;;5059397;28;20218;-78
2022/12/23 05:07:35;;;;;;;35.93;19.93;;;5.20;99.90;;;;;;5053755;28;20232;-78
2022/12/23 05:10:02;;;;;;;313.30;36.30;;;5.30;99.90;;;;;;5055607;28;20806;-78
2022/12/23 05:12:31;;;;;;;50.20;22.33;;;5.20;99.90;;;;;;5055410;28;20232;-78
2022/12/23 05:14:58;;;;;;;45.80;21.47;;;5.30;99.90;;;;;;5055910;28;20308;-78
2022/12/23 05:17:25;;;;;;;42.97;22.10;;;5.20;99.90;;;;;;5055711;28;20238;-79
2022/12/23 05:19:52;;;;;;;41.37;20.73;;;5.30;99.90;;;;;;5056574;28;20217;-79
2022/12/23 05:22:19;;;;;;;169.30;30.10;;;5.30;99.90;;;;;;5058729;28;20222;-79
2022/12/23 05:24:45;;;;;;;43.63;22.07;;;5.30;99.90;;;;;;5054589;28;20759;-81
2022/12/23 05:27:12;;;;;;;48.13;23.13;;;5.40;99.90;;;;;;5052049;28;20227;-83
2022/12/23 05:29:40;;;;;;;45.00;21.60;;;5.30;99.90;;;;;;5067396;28;20222;-81
2022/12/23 05:32:07;;;;;;;45.10;22.73;;;5.40;99.90;;;;;;5056248;28;20306;-80
2022/12/23 05:34:34;;;;;;;44.43;22.73;;;5.40;99.90;;;;;;5051550;28;20268;-80
2022/12/23 05:37:00;;;;;;;288.77;35.90;;;5.40;99.90;;;;;;5056188;28;20332;-79
2022/12/23 05:39:27;;;;;;;67.43;25.20;;;5.40;99.90;;;;;;5057807;28;20227;-81
2022/12/23 05:41:54;;;;;;;46.97;24.47;;;5.50;99.90;;;;;;5045983;28;20229;-82
2022/12/23 05:44:20;;;;;;;50.60;24.57;;;5.50;99.90;;;;;;5054807;28;20234;-81
2022/12/23 05:46:48;;;;;;;71.00;27.77;;;5.50;99.90;;;;;;5063625;28;20233;-82
2022/12/23 05:49:15;;;;;;;53.03;23.83;;;5.60;99.90;;;;;;5056715;28;20506;-82
2022/12/23 05:51:42;;;;;;;68.10;25.83;;;5.60;99.90;;;;;;5055486;28;20566;-81
2022/12/23 05:54:09;;;;;;;81.37;27.07;;;5.60;99.90;;;;;;5057866;28;20223;-81
2022/12/23 05:56:36;;;;;;;70.87;25.27;;;5.60;99.90;;;;;;5055917;28;20226;-82
2022/12/23 05:59:03;;;;;;;62.90;27.33;;;5.70;99.90;;;;;;5054602;28;20219;-81
2022/12/23 06:01:30;;;;;;;56.00;26.47;;;5.70;99.90;;;;;;5061057;28;20235;-82
2022/12/23 06:03:58;;;;;;;62.73;26.87;;;5.70;99.90;;;;;;5053676;28;20222;-78
2022/12/23 06:06:25;;;;;;;63.53;28.60;;;5.80;99.90;;;;;;5057249;28;20224;-79
2022/12/23 06:08:52;;;;;;;56.47;26.83;;;5.80;99.90;;;;;;5061626;28;20223;-79
2022/12/23 06:11:18;;;;;;;62.27;26.33;;;5.80;99.90;;;;;;5072215;28;20262;-79
2022/12/23 06:13:45;;;;;;;62.03;26.50;;;5.80;99.90;;;;;;5053107;28;20250;-79
2022/12/23 06:16:12;;;;;;;59.70;25.97;;;5.80;99.90;;;;;;5052771;28;20324;-79
2022/12/23 06:18:38;;;;;;;52.80;24.50;;;5.80;99.90;;;;;;5052035;28;20763;-79
2022/12/23 06:21:07;;;;;;;55.50;25.07;;;5.90;99.90;;;;;;5059578;28;20339;-79
2022/12/23 06:23:33;;;;;;;54.87;24.77;;;5.90;99.90;;;;;;5047930;28;20233;-79
2022/12/23 06:26:00;;;;;;;60.63;26.80;;;5.90;99.90;;;;;;5054484;28;20686;-79
2022/12/23 06:28:28;;;;;;;55.20;24.30;;;5.90;99.90;;;;;;5057401;28;20438;-79
2022/12/23 06:30:55;;;;;;;52.87;24.10;;;5.90;99.90;;;;;;5048788;28;20288;-79
2022/12/23 06:33:22;;;;;;;51.33;25.63;;;5.90;99.90;;;;;;5054419;28;20218;-79
2022/12/23 06:35:49;;;;;;;52.23;24.77;;;5.90;99.90;;;;;;5061642;28;20261;-79
2022/12/23 06:38:18;;;;;;;56.43;24.97;;;5.90;99.90;;;;;;5063729;28;20464;-79
2022/12/23 06:40:45;;;;;;;51.53;24.50;;;5.90;99.90;;;;;;5060357;28;20466;-79
2022/12/23 06:43:12;;;;;;;49.87;23.67;;;5.90;99.90;;;;;;5056724;28;20937;-79
2022/12/23 06:45:39;;;;;;;47.00;23.60;;;5.90;99.90;;;;;;5048391;28;20241;-78
2022/12/23 06:48:06;;;;;;;50.00;24.93;;;5.90;99.90;;;;;;5057702;28;20313;-79
2022/12/23 06:50:33;;;;;;;52.57;23.97;;;5.90;99.90;;;;;;5056323;28;20226;-77
2022/12/23 06:53:00;;;;;;;56.17;24.87;;;5.90;99.90;;;;;;5059660;28;20751;-79
2022/12/23 06:55:28;;;;;;;51.13;23.50;;;5.80;99.90;;;;;;5059339;28;20240;-78
2022/12/23 06:57:55;;;;;;;56.63;24.10;;;5.80;99.90;;;;;;5056969;28;20238;-77
2022/12/23 07:00:22;;;;;;;44.73;21.90;;;5.80;99.90;;;;;;5060912;28;20255;-78
2022/12/23 07:02:49;;;;;;;45.40;21.57;;;5.80;99.90;;;;;;5050472;28;20229;-79
2022/12/23 07:05:16;;;;;;;54.33;21.83;;;5.80;99.90;;;;;;5062144;28;20299;-79
2022/12/23 07:07:43;;;;;;;41.90;20.20;;;5.80;99.90;;;;;;5074425;28;20221;-79
2022/12/23 07:10:10;;;;;;;43.50;20.57;;;5.80;99.90;;;;;;5050185;28;20234;-79
2022/12/23 07:12:38;;;;;;;41.40;20.20;;;5.70;99.90;;;;;;5061916;28;20836;-79
2022/12/23 07:15:06;;;;;;;38.80;19.80;;;5.70;99.90;;;;;;5059221;28;20366;-78
2022/12/23 07:17:33;;;;;;;36.80;19.23;;;5.70;99.90;;;;;;5057633;28;20231;-77
2022/12/23 07:19:59;;;;;;;43.33;21.00;;;5.70;99.90;;;;;;5054676;28;20223;-79
2022/12/23 07:22:26;;;;;;;42.60;19.83;;;5.80;99.90;;;;;;5062860;28;20281;-79
2022/12/23 07:24:53;;;;;;;43.13;20.97;;;5.70;99.90;;;;;;5059527;28;20229;-79
2022/12/23 07:27:19;;;;;;;46.20;20.93;;;5.80;99.90;;;;;;5063699;28;20222;-79
2022/12/23 07:29:47;;;;;;;61.67;23.37;;;5.80;99.90;;;;;;5063198;28;20272;-79
2022/12/23 07:32:14;;;;;;;47.80;21.07;;;5.80;99.90;;;;;;5074409;28;20748;-79
2022/12/23 07:34:41;;;;;;;47.40;21.70;;;5.80;99.90;;;;;;5062826;28;20229;-80
2022/12/23 07:37:07;;;;;;;49.20;22.50;;;5.80;99.90;;;;;;5067516;28;20479;-80
2022/12/23 07:39:35;;;;;;;48.13;21.33;;;5.80;99.90;;;;;;5072823;28;20723;-80
2022/12/23 07:42:02;;;;;;;46.83;20.87;;;5.80;99.90;;;;;;5065001;28;20241;-79
2022/12/23 07:44:28;;;;;;;49.67;22.23;;;5.90;99.90;;;;;;5063983;28;20219;-79
2022/12/23 07:46:56;;;;;;;50.97;22.33;;;5.90;99.90;;;;;;5062916;28;20694;-79
2022/12/23 07:49:23;;;;;;;49.30;21.37;;;5.90;99.90;;;;;;5065773;28;20547;-79
2022/12/23 07:51:50;;;;;;;53.93;20.97;;;5.90;99.90;;;;;;5067796;28;20224;-79
2022/12/23 07:54:17;;;;;;;44.50;19.63;;;5.90;99.90;;;;;;5067649;28;20219;-78
2022/12/23 07:56:43;;;;;;;49.37;21.90;;;5.90;99.90;;;;;;5074190;28;20227;-78
2022/12/23 07:59:10;;;;;;;46.77;21.00;;;6.00;99.90;;;;;;5066665;28;20260;-79
2022/12/23 08:01:37;;;;;;;52.10;21.27;;;6.00;99.90;;;;;;5071453;28;20228;-79
2022/12/23 08:04:06;;;;;;;53.23;21.00;;;6.00;99.90;;;;;;5059248;28;20223;-79
2022/12/23 08:06:37;;;;;;;48.13;20.23;;;6.00;99.90;;;;;;5059538;28;20228;-78
2022/12/23 08:09:05;;;;;;;48.77;19.40;;;5.90;99.90;;;;;;5066269;28;20232;-79
2022/12/23 08:11:32;;;;;;;76.83;22.43;;;5.90;99.90;;;;;;5068745;28;20254;-81
2022/12/23 08:13:58;;;;;;;41.10;18.23;;;5.90;99.90;;;;;;5059487;28;20352;-78
2022/12/23 08:16:25;;;;;;;38.73;17.90;;;5.90;99.90;;;;;;5069566;28;20251;-80
2022/12/23 08:18:54;;;;;;;40.30;18.40;;;5.90;99.90;;;;;;5064575;28;20226;-80
2022/12/23 08:21:22;;;;;;;39.97;17.70;;;5.90;99.90;;;;;;5063701;28;20231;-80
2022/12/23 08:23:49;;;;;;;42.80;16.87;;;5.90;99.90;;;;;;5060270;28;20224;-80
2022/12/23 08:26:17;;;;;;;43.43;18.70;;;5.90;99.90;;;;;;5062414;28;20251;-80
2022/12/23 08:28:45;;;;;;;40.03;18.20;;;5.90;99.90;;;;;;5064925;28;20226;-80
2022/12/23 08:31:14;;;;;;;45.80;18.30;;;5.90;99.90;;;;;;5073375;28;20229;-80
2022/12/23 08:33:43;;;;;;;43.17;18.40;;;5.90;99.90;;;;;;5072822;28;20317;-80
2022/12/23 08:36:13;;;;;;;43.43;18.70;;;5.90;99.90;;;;;;5066090;28;20230;-80
2022/12/23 08:38:42;;;;;;;43.83;18.33;;;5.90;99.90;;;;;;5064944;28;20586;-79
2022/12/23 08:41:10;;;;;;;42.17;17.80;;;6.00;99.90;;;;;;5077339;28;20222;-79
2022/12/23 08:43:37;;;;;;;37.73;17.30;;;6.00;99.90;;;;;;5069373;28;20630;-79
2022/12/23 08:46:03;;;;;;;46.83;17.90;;;6.10;99.90;;;;;;5063266;28;20237;-79
2022/12/23 08:48:31;;;;;;;42.97;18.37;;;6.10;99.90;;;;;;5071427;28;20227;-77
2022/12/23 08:51:02;;;;;;;51.10;18.87;;;6.10;99.90;;;;;;5062525;28;20763;-80
2022/12/23 08:53:28;;;;;;;47.77;20.17;;;6.10;99.90;;;;;;5069637;28;21262;-79
2022/12/23 08:56:01;;;;;;;76.70;20.53;;;6.10;99.90;;;;;;5069652;28;20441;-80
2022/12/23 08:58:27;;;;;;;42.07;18.53;;;6.10;99.90;;;;;;5070135;28;20231;-79
2022/12/23 09:00:54;;;;;;;49.20;19.50;;;6.10;99.90;;;;;;5063620;28;20320;-79
2022/12/23 09:03:21;;;;;;;52.93;17.50;;;6.20;99.90;;;;;;5068079;28;20250;-78
2022/12/23 09:05:47;;;;;;;50.40;17.67;;;6.20;99.90;;;;;;5064208;28;20632;-79
2022/12/23 09:08:14;;;;;;;105.07;20.67;;;6.20;99.90;;;;;;5064406;28;20993;-79
2022/12/23 09:10:42;;;;;;;40.13;17.13;;;6.20;99.90;;;;;;5062611;28;20634;-78
2022/12/23 09:13:10;;;;;;;38.97;17.77;;;6.20;99.90;;;;;;5062742;28;20272;-78
2022/12/23 09:15:41;;;;;;;47.67;18.63;;;6.30;99.90;;;;;;5068106;28;20227;-78
2022/12/23 09:18:07;;;;;;;41.80;19.70;;;6.30;99.90;;;;;;5056758;28;20219;-78
2022/12/23 09:20:34;;;;;;;46.60;18.93;;;6.30;99.90;;;;;;5065703;28;20232;-79
2022/12/23 09:23:01;;;;;;;41.43;18.00;;;6.30;99.90;;;;;;5069085;28;20252;-79
2022/12/23 09:25:28;;;;;;;41.60;17.77;;;6.30;99.90;;;;;;5062888;28;20227;-79
2022/12/23 09:27:54;;;;;;;37.40;17.93;;;6.40;99.90;;;;;;5061324;28;21066;-79
2022/12/23 09:30:23;;;;;;;33.50;16.63;;;6.40;99.90;;;;;;5052644;28;20224;-79
2022/12/23 09:32:50;;;;;;;41.97;18.73;;;6.40;99.90;;;;;;5068999;28;20226;-79
2022/12/23 09:35:17;;;;;;;37.70;18.50;;;6.50;99.90;;;;;;5064646;28;20252;-78
2022/12/23 09:37:43;;;;;;;43.57;19.33;;;6.50;99.90;;;;;;5081536;28;20241;-79
2022/12/23 09:40:12;;;;;;;40.67;18.23;;;6.50;99.90;;;;;;5065425;28;20226;-78
2022/12/23 09:42:49;;;;;;;88.57;22.67;;;6.50;99.90;;;;;;5066801;28;20220;-79
2022/12/23 09:45:25;;;;;;;55.83;22.43;;;6.60;99.90;;;;;;5067463;28;20598;-79
2022/12/23 09:47:56;;;;;;;48.93;21.27;;;6.60;99.90;;;;;;5056357;28;20229;-80
2022/12/23 09:50:28;;;;;;;102.50;25.70;;;6.60;99.90;;;;;;5062458;28;20790;-82
2022/12/23 09:53:00;;;;;;;81.07;23.93;;;6.60;99.90;;;;;;5063897;28;20233;-80
2022/12/23 09:55:34;;;;;;;75.40;23.10;;;6.70;99.90;;;;;;5064052;28;20602;-80
2022/12/23 09:58:06;;;;;;;48.27;21.03;;;6.70;99.90;;;;;;5064898;28;20748;-80
2022/12/23 10:00:38;;;;;;;71.23;23.30;;;6.70;99.90;;;;;;5069988;28;20232;-80
2022/12/23 10:03:20;;;;;;;70.83;22.90;;;6.70;99.90;;;;;;5072346;28;20237;-79
2022/12/23 10:05:56;;;;;;;53.47;21.20;;;6.60;99.90;;;;;;5074358;28;20223;-79
2022/12/23 10:08:31;;;;;;;89.20;23.60;;;6.60;99.90;;;;;;5075252;28;20291;-78
2022/12/23 10:11:01;;;;;;;58.30;21.30;;;6.60;99.90;;;;;;5067252;28;20273;-79
2022/12/23 10:13:34;;;;;;;167.50;28.07;;;6.60;99.90;;;;;;5065096;28;20241;-78
2022/12/23 10:16:06;;;;;;;56.47;21.83;;;6.60;99.90;;;;;;5063832;28;20825;-79
2022/12/23 10:18:44;;;;;;;239.00;30.83;;;6.60;99.90;;;;;;5058442;28;20696;-80
2022/12/23 10:21:16;;;;;;;90.13;21.57;;;6.60;99.90;;;;;;5060109;28;20311;-80
2022/12/23 10:23:45;;;;;;;43.63;21.10;;;6.60;99.90;;;;;;5069630;23;20223;-91
2022/12/23 10:26:22;;;;;;;43.80;20.00;;;6.60;99.90;;;;;;5057072;28;20497;-91
2022/12/23 10:28:58;;;;;;;43.93;20.27;;;6.70;99.90;;;;;;5059226;28;20282;-91
2022/12/23 10:31:36;;;;;;;60.33;21.07;;;6.70;99.90;;;;;;5056899;28;20278;-90
2022/12/23 10:34:11;;;;;;;39.67;19.23;;;6.70;99.90;;;;;;4996583;28;20232;-91
2022/12/23 10:46:39;;;;;;;52.13;21.10;;;6.70;99.90;;;;;;5011835;28;20219;-82
2022/12/23 10:49:19;;;;;;;115.37;23.83;;;6.70;99.90;;;;;;5000888;28;20214;-82
2022/12/23 10:51:49;;;;;;;47.97;21.07;;;6.70;99.90;;;;;;5018321;28;20606;-83
2022/12/23 10:54:20;;;;;;;50.27;22.17;;;6.70;99.90;;;;;;5000355;28;20625;-83
2022/12/23 10:56:47;;;;;;;51.47;21.50;;;6.70;99.90;;;;;;5002027;28;20784;-82
2022/12/23 10:59:15;;;;;;;43.30;20.67;;;6.70;99.90;;;;;;4979537;28;20831;-83
2022/12/23 11:01:47;;;;;;;44.83;22.37;;;6.70;99.90;;;;;;4993493;28;20854;-83
2022/12/23 11:04:16;;;;;;;42.27;20.53;;;6.80;99.90;;;;;;4987997;28;20228;-83
2022/12/23 11:06:48;;;;;;;40.20;19.00;;;6.80;99.90;;;;;;5007073;28;20233;-83
2022/12/23 11:09:17;;;;;;;41.83;19.03;;;6.80;99.90;;;;;;4983307;28;20232;-83
2022/12/23 11:11:55;;;;;;;47.27;23.90;;;6.80;99.90;;;;;;5002296;28;20744;-83
2022/12/23 11:14:37;;;;;;;42.87;21.57;;;6.80;99.90;;;;;;5021911;28;20221;-83
2022/12/23 11:17:17;;;;;;;51.43;26.90;;;6.80;99.90;;;;;;5007828;28;20253;-83
2022/12/23 11:19:44;;;;;;;39.87;21.40;;;6.80;99.90;;;;;;5004630;28;20320;-83
2022/12/23 11:22:22;;;;;;;39.63;20.53;;;6.80;99.90;;;;;;5002552;28;20239;-83
2022/12/23 11:24:48;;;;;;;40.67;20.40;;;6.80;99.90;;;;;;5000287;28;20783;-84
2022/12/23 11:27:16;;;;;;;39.47;21.53;;;6.80;99.90;;;;;;5000419;28;20739;-82
2022/12/23 11:29:46;;;;;;;38.27;19.83;;;6.80;99.90;;;;;;4981827;28;20235;-83
2022/12/23 11:32:19;;;;;;;37.73;19.80;;;6.80;99.90;;;;;;4997570;28;20232;-82
2022/12/23 11:34:47;;;;;;;38.37;20.53;;;6.70;99.90;;;;;;4990314;28;20248;-82
2022/12/23 11:37:25;;;;;;;33.17;18.50;;;6.80;99.90;;;;;;5003435;28;20718;-83
2022/12/23 11:39:52;;;;;;;38.27;19.87;;;6.80;99.90;;;;;;4999075;28;20235;-82
2022/12/23 11:42:26;;;;;;;37.70;20.33;;;6.80;99.90;;;;;;5000099;28;20222;-82
2022/12/23 11:44:54;;;;;;;36.13;19.93;;;6.80;99.90;;;;;;4986774;28;20320;-82
2022/12/23 11:47:29;;;;;;;40.50;20.90;;;6.80;99.90;;;;;;5004526;28;20221;-83
2022/12/23 11:49:58;;;;;;;39.87;20.93;;;6.80;99.90;;;;;;4995291;28;20550;-83
2022/12/23 11:52:27;;;;;;;37.17;20.37;;;6.80;99.90;;;;;;4983044;28;20238;-83
2022/12/23 11:54:56;;;;;;;40.77;21.67;;;6.80;99.90;;;;;;4985836;28;20317;-83
2022/12/23 11:57:32;;;;;;;43.23;23.10;;;6.90;99.90;;;;;;4997857;28;20271;-83
2022/12/23 12:00:03;;;;;;;42.97;21.97;;;6.90;99.90;;;;;;4981400;28;20703;-83
2022/12/23 12:02:38;;;;;;;37.10;20.77;;;6.90;99.90;;;;;;5003992;28;20243;-83
2022/12/23 12:05:16;;;;;;;40.97;21.33;;;6.80;99.90;;;;;;4998202;28;20638;-82
2022/12/23 12:07:43;;;;;;;39.00;20.27;;;6.90;99.90;;;;;;5002988;28;20222;-83
2022/12/23 12:10:16;;;;;;;55.77;23.57;;;6.90;99.90;;;;;;5000013;28;20239;-83
2022/12/23 12:12:43;;;;;;;146.70;27.13;;;6.90;99.90;;;;;;4997394;28;20767;-79
2022/12/23 12:15:24;;;;;;;45.70;27.27;;;6.90;99.90;;;;;;4998259;28;20223;-80
2022/12/23 12:17:55;;;;;;;42.83;24.70;;;7.00;99.90;;;;;;5002917;28;20318;-80
2022/12/23 12:20:28;;;;;;;43.30;24.17;;;7.00;99.90;;;;;;4993559;28;20243;-80
2022/12/23 12:22:59;;;;;;;37.60;20.73;;;7.00;99.90;;;;;;5004567;28;20238;-80
2022/12/23 12:25:38;;;;;;;59.37;39.50;;;7.00;99.90;;;;;;4994655;28;20733;-80
2022/12/23 12:28:07;;;;;;;39.10;21.50;;;7.00;99.90;;;;;;4998651;28;20240;-80
2022/12/23 12:30:38;;;;;;;35.07;19.10;;;7.00;99.90;;;;;;5002586;28;20321;-80
2022/12/23 12:33:13;;;;;;;38.60;19.97;;;7.00;99.90;;;;;;5003608;28;20221;-80
2022/12/23 12:35:44;;;;;;;40.17;20.37;;;7.00;99.90;;;;;;4985917;28;20312;-80
2022/12/23 12:38:21;;;;;;;37.53;20.13;;;7.00;99.90;;;;;;4987060;28;20314;-80
2022/12/23 12:40:51;;;;;;;35.57;19.20;;;7.00;99.90;;;;;;5000715;28;20222;-80
2022/12/23 12:43:26;;;;;;;43.47;20.60;;;7.00;99.90;;;;;;4996174;28;20304;-79
2022/12/23 12:46:06;;;;;;;36.17;20.77;;;7.10;99.90;;;;;;4996226;28;20728;-80
2022/12/23 12:48:41;;;;;;;39.67;20.77;;;7.10;99.90;;;;;;4998833;28;20226;-80
2022/12/23 12:51:16;;;;;;;41.47;20.67;;;7.10;99.90;;;;;;4995219;28;20225;-80
2022/12/23 12:53:53;;;;;;;39.33;21.30;;;7.10;99.90;;;;;;4979288;28;20257;-80
2022/12/23 12:56:28;;;;;;;41.13;21.63;;;7.00;99.90;;;;;;4999858;28;20222;-80
2022/12/23 12:58:54;;;;;;;39.43;21.20;;;7.00;99.90;;;;;;4996498;28;20856;-80
2022/12/23 13:01:36;;;;;;;39.30;21.23;;;7.00;99.90;;;;;;5000938;28;20701;-80
2022/12/23 13:04:24;;;;;;;39.30;20.67;;;7.00;99.90;;;;;;4999597;28;20761;-81
2022/12/23 13:07:01;;;;;;;44.10;20.40;;;7.00;99.90;;;;;;4980524;28;20342;-79
2022/12/23 13:09:35;;;;;;;40.90;21.50;;;6.90;99.90;;;;;;4981077;28;20360;-80
2022/12/23 13:12:14;;;;;;;45.33;22.07;;;6.90;99.90;;;;;;4976135;28;20253;-80
2022/12/23 13:14:53;;;;;;;36.87;20.13;;;6.90;99.90;;;;;;4996823;28;20714;-80
2022/12/23 13:17:27;;;;;;;43.10;21.63;;;6.90;99.90;;;;;;4999274;28;20232;-80
2022/12/23 13:20:02;;;;;;;39.13;20.47;;;6.90;99.90;;;;;;4992697;28;20219;-79
2022/12/23 13:22:32;;;;;;;38.30;21.20;;;6.90;99.90;;;;;;5001741;28;20805;-80
2022/12/23 13:25:05;;;;;;;41.20;21.80;;;6.80;99.90;;;;;;5001150;28;20230;-80